Terminal Aerodrome Forecast
Issued by NWS Lake Charles, LA

Home | Current Version | Previous Version | Text Only | Print | Product List | Glossary On
Versions: 1 2 3 4 5 6 7 8 9 10 11 12 13 14
000
FTUS44 KLCH 051720
TAFLFT
TAF
KLFT 051720Z 0518/0618 21006KT P6SM VCTS BKN035CB
      TEMPO 0520/0524 VRB10G30KT 4SM TSRA BKN040CB
     FM060000 VRB03KT P6SM BKN250=

USA.gov is the U.S. government's official web portal to all federal, state and local government web resources and services.